sensor_id;sensor_type;location;lat;lon;timestamp;P1;durP1;ratioP1;P2;durP2;ratioP2
3278;SDS011;1651;50.940;6.888;2022-08-21T04:19:33;10.60;;;9.53;;
3278;SDS011;1651;50.940;6.888;2022-08-21T04:21:59;15.83;;;10.50;;
3278;SDS011;1651;50.940;6.888;2022-08-21T04:24:25;17.33;;;12.00;;
3278;SDS011;1651;50.940;6.888;2022-08-21T04:26:52;17.17;;;11.77;;
3278;SDS011;1651;50.940;6.888;2022-08-21T04:29:18;16.03;;;12.23;;
3278;SDS011;1651;50.940;6.888;2022-08-21T04:31:44;15.20;;;11.50;;
3278;SDS011;1651;50.940;6.888;2022-08-21T04:34:11;21.27;;;12.17;;
3278;SDS011;1651;50.940;6.888;2022-08-21T04:36:37;14.07;;;11.07;;
3278;SDS011;1651;50.940;6.888;2022-08-21T04:39:03;17.23;;;12.20;;
3278;SDS011;1651;50.940;6.888;2022-08-21T04:41:29;13.57;;;11.17;;
3278;SDS011;1651;50.940;6.888;2022-08-21T04:43:55;12.40;;;8.83;;
3278;SDS011;1651;50.940;6.888;2022-08-21T04:46:22;13.37;;;9.33;;
3278;SDS011;1651;50.940;6.888;2022-08-21T04:48:48;11.53;;;8.50;;
3278;SDS011;1651;50.940;6.888;2022-08-21T04:53:44;10.83;;;7.97;;
3278;SDS011;1651;50.940;6.888;2022-08-21T04:56:12;11.83;;;8.00;;
3278;SDS011;1651;50.940;6.888;2022-08-21T04:58:40;9.83;;;8.27;;
3278;SDS011;1651;50.940;6.888;2022-08-21T05:01:11;10.43;;;8.10;;
3278;SDS011;1651;50.940;6.888;2022-08-21T05:03:39;11.10;;;7.83;;
3278;SDS011;1651;50.940;6.888;2022-08-21T05:06:07;7.90;;;7.20;;
3278;SDS011;1651;50.940;6.888;2022-08-21T05:08:34;12.13;;;8.27;;
3278;SDS011;1651;50.940;6.888;2022-08-21T05:11:00;11.30;;;8.57;;
3278;SDS011;1651;50.940;6.888;2022-08-21T05:13:28;7.77;;;6.50;;
3278;SDS011;1651;50.940;6.888;2022-08-21T05:15:54;8.50;;;7.60;;
3278;SDS011;1651;50.940;6.888;2022-08-21T05:18:20;10.33;;;6.93;;
3278;SDS011;1651;50.940;6.888;2022-08-21T05:20:47;11.40;;;7.73;;
3278;SDS011;1651;50.940;6.888;2022-08-21T05:23:14;9.37;;;7.30;;
3278;SDS011;1651;50.940;6.888;2022-08-21T05:25:41;8.77;;;6.60;;
3278;SDS011;1651;50.940;6.888;2022-08-21T05:28:09;8.97;;;6.80;;
3278;SDS011;1651;50.940;6.888;2022-08-21T05:30:36;10.60;;;7.07;;
3278;SDS011;1651;50.940;6.888;2022-08-21T05:33:03;10.63;;;6.50;;
3278;SDS011;1651;50.940;6.888;2022-08-21T05:35:30;10.60;;;7.43;;
3278;SDS011;1651;50.940;6.888;2022-08-21T05:37:57;10.43;;;6.90;;
3278;SDS011;1651;50.940;6.888;2022-08-21T05:40:24;11.57;;;7.47;;
3278;SDS011;1651;50.940;6.888;2022-08-21T05:42:50;9.77;;;7.13;;
3278;SDS011;1651;50.940;6.888;2022-08-21T05:45:16;13.13;;;7.83;;
3278;SDS011;1651;50.940;6.888;2022-08-21T05:47:43;7.40;;;5.97;;
3278;SDS011;1651;50.940;6.888;2022-08-21T05:50:09;12.73;;;7.30;;
3278;SDS011;1651;50.940;6.888;2022-08-21T05:52:36;9.20;;;6.80;;
3278;SDS011;1651;50.940;6.888;2022-08-21T05:55:02;9.10;;;7.40;;
3278;SDS011;1651;50.940;6.888;2022-08-21T05:57:29;7.53;;;6.30;;
3278;SDS011;1651;50.940;6.888;2022-08-21T05:59:55;8.00;;;6.67;;
3278;SDS011;1651;50.940;6.888;2022-08-21T06:02:21;6.73;;;5.90;;
3278;SDS011;1651;50.940;6.888;2022-08-21T06:04:48;9.47;;;6.37;;
3278;SDS011;1651;50.940;6.888;2022-08-21T06:07:14;11.33;;;5.83;;
3278;SDS011;1651;50.940;6.888;2022-08-21T06:09:40;8.20;;;5.50;;
3278;SDS011;1651;50.940;6.888;2022-08-21T06:12:08;11.50;;;6.27;;
3278;SDS011;1651;50.940;6.888;2022-08-21T06:14:34;5.83;;;5.30;;
3278;SDS011;1651;50.940;6.888;2022-08-21T06:17:05;10.83;;;4.67;;
3278;SDS011;1651;50.940;6.888;2022-08-21T06:19:32;5.83;;;5.33;;
3278;SDS011;1651;50.940;6.888;2022-08-21T06:21:59;7.20;;;5.60;;
3278;SDS011;1651;50.940;6.888;2022-08-21T06:24:25;8.07;;;7.00;;
3278;SDS011;1651;50.940;6.888;2022-08-21T06:27:14;5.63;;;4.50;;
3278;SDS011;1651;50.940;6.888;2022-08-21T06:32:49;5.77;;;3.70;;
3278;SDS011;1651;50.940;6.888;2022-08-21T06:35:19;4.80;;;3.83;;
3278;SDS011;1651;50.940;6.888;2022-08-21T06:38:05;6.10;;;3.23;;
3278;SDS011;1651;50.940;6.888;2022-08-21T06:40:35;4.93;;;3.00;;
3278;SDS011;1651;50.940;6.888;2022-08-21T06:43:05;3.60;;;2.63;;
3278;SDS011;1651;50.940;6.888;2022-08-21T06:45:42;4.80;;;3.10;;
3278;SDS011;1651;50.940;6.888;2022-08-21T06:48:29;9.67;;;3.20;;
3278;SDS011;1651;50.940;6.888;2022-08-21T06:50:58;6.40;;;2.97;;
3278;SDS011;1651;50.940;6.888;2022-08-21T06:53:24;5.10;;;2.83;;
3278;SDS011;1651;50.940;6.888;2022-08-21T06:55:51;8.20;;;3.23;;
3278;SDS011;1651;50.940;6.888;2022-08-21T06:58:18;5.50;;;3.10;;
3278;SDS011;1651;50.940;6.888;2022-08-21T07:01:04;3.20;;;2.00;;
3278;SDS011;1651;50.940;6.888;2022-08-21T07:03:35;5.77;;;3.13;;
3278;SDS011;1651;50.940;6.888;2022-08-21T07:06:26;4.97;;;2.37;;
3278;SDS011;1651;50.940;6.888;2022-08-21T07:09:18;4.40;;;2.33;;
3278;SDS011;1651;50.940;6.888;2022-08-21T07:11:45;5.07;;;2.33;;
3278;SDS011;1651;50.940;6.888;2022-08-21T07:14:13;4.27;;;2.50;;
3278;SDS011;1651;50.940;6.888;2022-08-21T07:16:40;6.60;;;2.60;;
3278;SDS011;1651;50.940;6.888;2022-08-21T07:19:08;2.03;;;1.70;;
3278;SDS011;1651;50.940;6.888;2022-08-21T07:21:34;4.60;;;1.90;;
3278;SDS011;1651;50.940;6.888;2022-08-21T07:24:00;6.03;;;2.87;;
3278;SDS011;1651;50.940;6.888;2022-08-21T07:26:34;6.03;;;2.13;;
3278;SDS011;1651;50.940;6.888;2022-08-21T07:29:01;1.93;;;1.50;;
3278;SDS011;1651;50.940;6.888;2022-08-21T07:31:37;4.23;;;2.27;;
3278;SDS011;1651;50.940;6.888;2022-08-21T07:37:10;3.83;;;2.30;;
3278;SDS011;1651;50.940;6.888;2022-08-21T07:40:25;3.13;;;1.67;;
3278;SDS011;1651;50.940;6.888;2022-08-21T07:43:26;4.37;;;1.97;;
3278;SDS011;1651;50.940;6.888;2022-08-21T07:47:02;3.47;;;1.90;;
3278;SDS011;1651;50.940;6.888;2022-08-21T07:52:58;4.07;;;1.60;;
3278;SDS011;1651;50.940;6.888;2022-08-21T07:56:08;3.27;;;1.60;;
3278;SDS011;1651;50.940;6.888;2022-08-21T07:59:08;4.90;;;1.50;;
3278;SDS011;1651;50.940;6.888;2022-08-21T08:02:00;4.67;;;2.67;;
3278;SDS011;1651;50.940;6.888;2022-08-21T08:04:26;4.40;;;1.73;;
3278;SDS011;1651;50.940;6.888;2022-08-21T08:06:52;3.30;;;2.00;;
3278;SDS011;1651;50.940;6.888;2022-08-21T08:09:20;4.90;;;2.30;;
3278;SDS011;1651;50.940;6.888;2022-08-21T08:11:47;2.83;;;1.30;;
3278;SDS011;1651;50.940;6.888;2022-08-21T08:14:14;4.30;;;1.60;;
3278;SDS011;1651;50.940;6.888;2022-08-21T08:16:40;4.17;;;1.80;;
3278;SDS011;1651;50.940;6.888;2022-08-21T08:19:08;3.40;;;1.90;;
3278;SDS011;1651;50.940;6.888;2022-08-21T08:21:45;2.93;;;1.43;;
3278;SDS011;1651;50.940;6.888;2022-08-21T08:24:13;3.87;;;1.70;;
3278;SDS011;1651;50.940;6.888;2022-08-21T08:26:52;5.37;;;2.70;;
3278;SDS011;1651;50.940;6.888;2022-08-21T08:32:26;2.10;;;1.47;;
3278;SDS011;1651;50.940;6.888;2022-08-21T08:35:01;5.77;;;2.00;;
3278;SDS011;1651;50.940;6.888;2022-08-21T08:37:27;7.13;;;1.70;;
3278;SDS011;1651;50.940;6.888;2022-08-21T08:39:53;3.20;;;1.77;;
3278;SDS011;1651;50.940;6.888;2022-08-21T08:42:22;6.33;;;2.43;;
3278;SDS011;1651;50.940;6.888;2022-08-21T08:44:55;3.50;;;1.47;;
3278;SDS011;1651;50.940;6.888;2022-08-21T08:47:23;4.07;;;1.60;;
3278;SDS011;1651;50.940;6.888;2022-08-21T08:49:53;3.27;;;1.70;;
3278;SDS011;1651;50.940;6.888;2022-08-21T08:52:23;3.73;;;1.73;;
3278;SDS011;1651;50.940;6.888;2022-08-21T08:55:01;2.30;;;1.50;;
3278;SDS011;1651;50.940;6.888;2022-08-21T08:57:28;2.53;;;1.40;;
3278;SDS011;1651;50.940;6.888;2022-08-21T08:59:58;7.90;;;2.17;;
3278;SDS011;1651;50.940;6.888;2022-08-21T09:02:25;2.83;;;1.33;;
3278;SDS011;1651;50.940;6.888;2022-08-21T09:04:59;3.47;;;1.40;;
3278;SDS011;1651;50.940;6.888;2022-08-21T09:15:16;4.90;;;1.77;;
3278;SDS011;1651;50.940;6.888;2022-08-21T09:18:03;2.90;;;1.53;;
3278;SDS011;1651;50.940;6.888;2022-08-21T09:26:08;3.87;;;1.20;;
3278;SDS011;1651;50.940;6.888;2022-08-21T09:28:37;3.33;;;1.40;;
3278;SDS011;1651;50.940;6.888;2022-08-21T09:31:06;4.23;;;1.50;;
3278;SDS011;1651;50.940;6.888;2022-08-21T09:33:32;6.93;;;1.90;;
3278;SDS011;1651;50.940;6.888;2022-08-21T09:35:58;3.40;;;1.40;;
3278;SDS011;1651;50.940;6.888;2022-08-21T09:38:29;5.63;;;1.93;;
3278;SDS011;1651;50.940;6.888;2022-08-21T09:41:00;1.37;;;1.10;;
3278;SDS011;1651;50.940;6.888;2022-08-21T09:43:27;2.80;;;1.40;;
3278;SDS011;1651;50.940;6.888;2022-08-21T09:48:29;4.03;;;2.50;;
3278;SDS011;1651;50.940;6.888;2022-08-21T09:51:08;6.80;;;2.20;;
3278;SDS011;1651;50.940;6.888;2022-08-21T09:53:37;2.70;;;1.40;;
3278;SDS011;1651;50.940;6.888;2022-08-21T09:56:16;4.00;;;1.20;;
3278;SDS011;1651;50.940;6.888;2022-08-21T09:59:12;4.50;;;2.17;;
3278;SDS011;1651;50.940;6.888;2022-08-21T10:01:42;5.30;;;1.83;;
3278;SDS011;1651;50.940;6.888;2022-08-21T10:04:10;3.93;;;1.40;;
3278;SDS011;1651;50.940;6.888;2022-08-21T10:06:37;4.57;;;1.53;;
3278;SDS011;1651;50.940;6.888;2022-08-21T10:09:07;4.43;;;1.40;;
3278;SDS011;1651;50.940;6.888;2022-08-21T10:11:35;6.77;;;1.80;;
3278;SDS011;1651;50.940;6.888;2022-08-21T10:14:11;6.00;;;1.60;;
3278;SDS011;1651;50.940;6.888;2022-08-21T10:24:31;3.60;;;1.80;;
3278;SDS011;1651;50.940;6.888;2022-08-21T10:29:46;3.80;;;1.80;;
3278;SDS011;1651;50.940;6.888;2022-08-21T10:40:14;6.03;;;2.20;;
3278;SDS011;1651;50.940;6.888;2022-08-21T10:45:25;7.77;;;2.83;;
3278;SDS011;1651;50.940;6.888;2022-08-21T10:47:57;10.13;;;1.63;;
3278;SDS011;1651;50.940;6.888;2022-08-21T10:50:31;5.93;;;1.87;;
3278;SDS011;1651;50.940;6.888;2022-08-21T10:53:07;5.77;;;1.70;;
3278;SDS011;1651;50.940;6.888;2022-08-21T10:55:39;5.40;;;1.87;;
3278;SDS011;1651;50.940;6.888;2022-08-21T10:58:08;2.37;;;1.50;;
3278;SDS011;1651;50.940;6.888;2022-08-21T11:00:45;4.10;;;1.70;;
3278;SDS011;1651;50.940;6.888;2022-08-21T11:05:40;3.30;;;1.70;;
3278;SDS011;1651;50.940;6.888;2022-08-21T11:10:38;4.10;;;1.63;;
3278;SDS011;1651;50.940;6.888;2022-08-21T11:18:45;3.57;;;1.40;;
3278;SDS011;1651;50.940;6.888;2022-08-21T11:21:19;5.33;;;1.87;;
3278;SDS011;1651;50.940;6.888;2022-08-21T11:23:52;6.07;;;1.80;;
3278;SDS011;1651;50.940;6.888;2022-08-21T11:26:23;7.40;;;1.50;;
3278;SDS011;1651;50.940;6.888;2022-08-21T11:28:52;6.03;;;1.60;;
3278;SDS011;1651;50.940;6.888;2022-08-21T11:39:01;8.70;;;2.03;;
3278;SDS011;1651;50.940;6.888;2022-08-21T11:57:55;4.27;;;1.80;;
3278;SDS011;1651;50.940;6.888;2022-08-21T11:59:53;4.67;;;1.60;;
3278;SDS011;1651;50.940;6.888;2022-08-21T12:02:23;4.07;;;1.53;;
3278;SDS011;1651;50.940;6.888;2022-08-21T12:04:54;1.53;;;1.30;;
3278;SDS011;1651;50.940;6.888;2022-08-21T12:10:17;2.03;;;1.30;;
3278;SDS011;1651;50.940;6.888;2022-08-21T12:12:46;3.83;;;1.27;;
3278;SDS011;1651;50.940;6.888;2022-08-21T12:15:24;9.60;;;1.50;;
3278;SDS011;1651;50.940;6.888;2022-08-21T12:17:53;1.80;;;1.23;;
3278;SDS011;1651;50.940;6.888;2022-08-21T12:23:47;3.13;;;2.10;;
3278;SDS011;1651;50.940;6.888;2022-08-21T12:25:42;3.20;;;1.43;;
3278;SDS011;1651;50.940;6.888;2022-08-21T12:28:10;3.23;;;1.70;;
3278;SDS011;1651;50.940;6.888;2022-08-21T12:30:38;3.77;;;1.40;;
3278;SDS011;1651;50.940;6.888;2022-08-21T12:33:05;3.90;;;1.70;;
3278;SDS011;1651;50.940;6.888;2022-08-21T12:35:35;5.23;;;1.83;;
3278;SDS011;1651;50.940;6.888;2022-08-21T12:38:20;5.27;;;1.63;;
3278;SDS011;1651;50.940;6.888;2022-08-21T12:41:00;3.40;;;1.57;;
3278;SDS011;1651;50.940;6.888;2022-08-21T12:43:29;4.10;;;2.10;;
3278;SDS011;1651;50.940;6.888;2022-08-21T12:45:57;4.27;;;2.63;;
3278;SDS011;1651;50.940;6.888;2022-08-21T12:48:35;2.90;;;1.60;;
3278;SDS011;1651;50.940;6.888;2022-08-21T12:53:33;4.13;;;1.50;;
3278;SDS011;1651;50.940;6.888;2022-08-21T12:56:02;3.30;;;1.20;;
3278;SDS011;1651;50.940;6.888;2022-08-21T12:58:29;3.20;;;1.40;;
3278;SDS011;1651;50.940;6.888;2022-08-21T13:00:56;5.10;;;1.43;;
3278;SDS011;1651;50.940;6.888;2022-08-21T13:03:25;4.20;;;1.67;;
3278;SDS011;1651;50.940;6.888;2022-08-21T13:05:52;2.77;;;1.70;;
3278;SDS011;1651;50.940;6.888;2022-08-21T13:08:19;10.13;;;7.80;;
3278;SDS011;1651;50.940;6.888;2022-08-21T13:10:46;5.93;;;2.27;;
3278;SDS011;1651;50.940;6.888;2022-08-21T13:13:16;5.80;;;3.37;;
3278;SDS011;1651;50.940;6.888;2022-08-21T13:15:45;3.10;;;1.77;;
3278;SDS011;1651;50.940;6.888;2022-08-21T13:18:19;4.97;;;4.00;;
3278;SDS011;1651;50.940;6.888;2022-08-21T13:20:46;9.73;;;5.97;;
3278;SDS011;1651;50.940;6.888;2022-08-21T13:23:20;7.90;;;2.47;;
3278;SDS011;1651;50.940;6.888;2022-08-21T13:25:49;3.97;;;2.33;;
3278;SDS011;1651;50.940;6.888;2022-08-21T13:28:15;4.80;;;2.00;;
3278;SDS011;1651;50.940;6.888;2022-08-21T13:30:43;8.67;;;6.63;;
3278;SDS011;1651;50.940;6.888;2022-08-21T13:33:09;5.60;;;1.47;;
3278;SDS011;1651;50.940;6.888;2022-08-21T13:35:45;7.30;;;1.93;;
3278;SDS011;1651;50.940;6.888;2022-08-21T13:38:12;3.83;;;1.67;;
3278;SDS011;1651;50.940;6.888;2022-08-21T13:40:44;3.50;;;1.53;;
3278;SDS011;1651;50.940;6.888;2022-08-21T13:43:12;3.47;;;1.60;;
3278;SDS011;1651;50.940;6.888;2022-08-21T13:45:43;2.90;;;1.50;;
3278;SDS011;1651;50.940;6.888;2022-08-21T13:48:09;6.60;;;1.70;;
3278;SDS011;1651;50.940;6.888;2022-08-21T13:50:36;4.70;;;1.63;;
3278;SDS011;1651;50.940;6.888;2022-08-21T13:53:04;5.40;;;1.63;;
3278;SDS011;1651;50.940;6.888;2022-08-21T13:55:40;4.03;;;1.77;;
3278;SDS011;1651;50.940;6.888;2022-08-21T13:58:07;7.80;;;3.00;;
3278;SDS011;1651;50.940;6.888;2022-08-21T14:00:37;3.50;;;1.50;;
3278;SDS011;1651;50.940;6.888;2022-08-21T14:03:09;2.20;;;1.30;;
3278;SDS011;1651;50.940;6.888;2022-08-21T14:05:37;4.80;;;1.70;;
3278;SDS011;1651;50.940;6.888;2022-08-21T14:08:08;5.57;;;1.70;;
3278;SDS011;1651;50.940;6.888;2022-08-21T14:10:37;3.20;;;1.50;;
3278;SDS011;1651;50.940;6.888;2022-08-21T14:13:06;4.60;;;1.30;;
3278;SDS011;1651;50.940;6.888;2022-08-21T14:15:34;5.90;;;1.73;;
3278;SDS011;1651;50.940;6.888;2022-08-21T14:20:34;2.93;;;2.00;;
3278;SDS011;1651;50.940;6.888;2022-08-21T14:23:11;4.60;;;1.33;;
3278;SDS011;1651;50.940;6.888;2022-08-21T14:26:07;6.37;;;1.73;;
3278;SDS011;1651;50.940;6.888;2022-08-21T14:28:43;1.67;;;1.17;;
3278;SDS011;1651;50.940;6.888;2022-08-21T14:31:16;6.87;;;1.50;;
3278;SDS011;1651;50.940;6.888;2022-08-21T14:33:48;2.70;;;1.40;;
3278;SDS011;1651;50.940;6.888;2022-08-21T14:36:14;3.30;;;1.43;;
3278;SDS011;1651;50.940;6.888;2022-08-21T14:38:40;4.00;;;1.50;;
3278;SDS011;1651;50.940;6.888;2022-08-21T14:41:17;3.00;;;1.40;;
3278;SDS011;1651;50.940;6.888;2022-08-21T14:43:44;3.20;;;1.67;;
3278;SDS011;1651;50.940;6.888;2022-08-21T14:46:11;3.33;;;1.50;;
3278;SDS011;1651;50.940;6.888;2022-08-21T14:48:38;4.07;;;1.30;;
3278;SDS011;1651;50.940;6.888;2022-08-21T14:51:04;3.23;;;1.60;;
3278;SDS011;1651;50.940;6.888;2022-08-21T14:53:31;3.63;;;1.30;;
3278;SDS011;1651;50.940;6.888;2022-08-21T14:55:57;3.40;;;1.70;;
3278;SDS011;1651;50.940;6.888;2022-08-21T14:58:36;1.73;;;1.43;;
3278;SDS011;1651;50.940;6.888;2022-08-21T15:01:03;4.10;;;1.43;;
3278;SDS011;1651;50.940;6.888;2022-08-21T15:03:30;4.07;;;1.67;;
3278;SDS011;1651;50.940;6.888;2022-08-21T15:05:56;6.60;;;1.50;;
3278;SDS011;1651;50.940;6.888;2022-08-21T15:08:23;4.63;;;1.40;;
3278;SDS011;1651;50.940;6.888;2022-08-21T15:10:51;2.80;;;1.50;;
3278;SDS011;1651;50.940;6.888;2022-08-21T15:13:19;2.90;;;1.50;;
3278;SDS011;1651;50.940;6.888;2022-08-21T15:15:47;1.63;;;1.40;;
3278;SDS011;1651;50.940;6.888;2022-08-21T15:18:14;3.53;;;1.70;;
3278;SDS011;1651;50.940;6.888;2022-08-21T15:20:40;5.10;;;2.30;;
3278;SDS011;1651;50.940;6.888;2022-08-21T15:23:06;4.13;;;1.47;;
3278;SDS011;1651;50.940;6.888;2022-08-21T15:25:33;2.90;;;1.70;;
3278;SDS011;1651;50.940;6.888;2022-08-21T15:27:59;4.47;;;1.50;;
3278;SDS011;1651;50.940;6.888;2022-08-21T15:30:26;4.37;;;1.90;;
3278;SDS011;1651;50.940;6.888;2022-08-21T15:32:52;3.20;;;1.70;;
3278;SDS011;1651;50.940;6.888;2022-08-21T15:35:18;4.10;;;1.90;;
3278;SDS011;1651;50.940;6.888;2022-08-21T15:37:44;4.77;;;1.63;;
3278;SDS011;1651;50.940;6.888;2022-08-21T15:40:14;3.70;;;1.20;;
3278;SDS011;1651;50.940;6.888;2022-08-21T15:42:41;2.70;;;1.53;;
3278;SDS011;1651;50.940;6.888;2022-08-21T15:45:07;4.83;;;1.67;;
3278;SDS011;1651;50.940;6.888;2022-08-21T15:47:35;2.70;;;1.43;;
3278;SDS011;1651;50.940;6.888;2022-08-21T15:50:02;2.87;;;1.67;;
3278;SDS011;1651;50.940;6.888;2022-08-21T15:52:29;5.63;;;1.63;;
3278;SDS011;1651;50.940;6.888;2022-08-21T15:54:55;4.00;;;1.40;;
3278;SDS011;1651;50.940;6.888;2022-08-21T15:57:21;2.77;;;1.30;;
3278;SDS011;1651;50.940;6.888;2022-08-21T15:59:50;2.40;;;1.20;;
3278;SDS011;1651;50.940;6.888;2022-08-21T16:02:27;4.43;;;1.90;;
3278;SDS011;1651;50.940;6.888;2022-08-21T16:04:55;5.37;;;2.53;;
3278;SDS011;1651;50.940;6.888;2022-08-21T16:07:21;8.40;;;4.07;;
3278;SDS011;1651;50.940;6.888;2022-08-21T16:09:47;2.57;;;1.53;;
3278;SDS011;1651;50.940;6.888;2022-08-21T16:12:17;3.50;;;1.50;;
3278;SDS011;1651;50.940;6.888;2022-08-21T16:14:46;7.90;;;1.77;;
3278;SDS011;1651;50.940;6.888;2022-08-21T16:17:14;2.40;;;1.30;;
3278;SDS011;1651;50.940;6.888;2022-08-21T16:19:40;3.50;;;1.20;;
3278;SDS011;1651;50.940;6.888;2022-08-21T16:22:06;2.30;;;1.23;;
3278;SDS011;1651;50.940;6.888;2022-08-21T16:24:33;2.10;;;1.30;;
3278;SDS011;1651;50.940;6.888;2022-08-21T16:27:00;2.10;;;1.40;;
3278;SDS011;1651;50.940;6.888;2022-08-21T16:29:27;2.90;;;1.60;;
3278;SDS011;1651;50.940;6.888;2022-08-21T16:31:54;2.90;;;1.40;;
3278;SDS011;1651;50.940;6.888;2022-08-21T16:34:21;2.60;;;1.60;;
3278;SDS011;1651;50.940;6.888;2022-08-21T16:36:47;4.10;;;1.60;;
3278;SDS011;1651;50.940;6.888;2022-08-21T16:39:13;1.90;;;1.70;;
3278;SDS011;1651;50.940;6.888;2022-08-21T16:41:40;2.80;;;1.30;;
3278;SDS011;1651;50.940;6.888;2022-08-21T16:44:06;2.90;;;1.50;;
3278;SDS011;1651;50.940;6.888;2022-08-21T16:46:34;1.90;;;1.40;;
3278;SDS011;1651;50.940;6.888;2022-08-21T16:49:02;4.97;;;2.30;;
3278;SDS011;1651;50.940;6.888;2022-08-21T16:51:28;3.70;;;1.77;;
3278;SDS011;1651;50.940;6.888;2022-08-21T16:53:56;2.50;;;1.47;;
3278;SDS011;1651;50.940;6.888;2022-08-21T16:56:22;3.00;;;1.60;;
3278;SDS011;1651;50.940;6.888;2022-08-21T16:58:48;5.53;;;1.93;;
3278;SDS011;1651;50.940;6.888;2022-08-21T17:01:19;3.83;;;1.60;;
3278;SDS011;1651;50.940;6.888;2022-08-21T17:03:47;2.30;;;1.50;;
3278;SDS011;1651;50.940;6.888;2022-08-21T17:06:15;2.60;;;1.30;;
3278;SDS011;1651;50.940;6.888;2022-08-21T17:08:45;4.00;;;1.60;;
3278;SDS011;1651;50.940;6.888;2022-08-21T17:13:40;3.47;;;1.50;;
3278;SDS011;1651;50.940;6.888;2022-08-21T17:16:06;4.40;;;1.97;;
3278;SDS011;1651;50.940;6.888;2022-08-21T17:18:32;2.70;;;1.50;;
3278;SDS011;1651;50.940;6.888;2022-08-21T17:20:58;9.67;;;1.60;;
3278;SDS011;1651;50.940;6.888;2022-08-21T17:23:25;2.43;;;1.60;;
3278;SDS011;1651;50.940;6.888;2022-08-21T17:25:51;3.10;;;1.60;;
3278;SDS011;1651;50.940;6.888;2022-08-21T17:28:20;3.30;;;1.47;;
3278;SDS011;1651;50.940;6.888;2022-08-21T17:30:48;2.47;;;1.60;;
3278;SDS011;1651;50.940;6.888;2022-08-21T17:33:15;2.90;;;1.40;;
3278;SDS011;1651;50.940;6.888;2022-08-21T17:35:42;2.00;;;1.20;;
3278;SDS011;1651;50.940;6.888;2022-08-21T17:38:08;1.60;;;1.40;;
3278;SDS011;1651;50.940;6.888;2022-08-21T17:40:37;6.60;;;1.40;;
3278;SDS011;1651;50.940;6.888;2022-08-21T17:43:03;5.97;;;1.40;;
3278;SDS011;1651;50.940;6.888;2022-08-21T17:45:32;3.20;;;1.50;;
3278;SDS011;1651;50.940;6.888;2022-08-21T17:47:58;3.10;;;1.97;;
3278;SDS011;1651;50.940;6.888;2022-08-21T17:50:26;3.20;;;1.37;;
3278;SDS011;1651;50.940;6.888;2022-08-21T17:52:53;2.17;;;1.30;;
3278;SDS011;1651;50.940;6.888;2022-08-21T17:55:19;8.00;;;1.80;;
3278;SDS011;1651;50.940;6.888;2022-08-21T17:57:47;2.70;;;1.77;;
3278;SDS011;1651;50.940;6.888;2022-08-21T18:00:15;2.07;;;1.23;;
3278;SDS011;1651;50.940;6.888;2022-08-21T18:03:02;6.80;;;1.93;;
3278;SDS011;1651;50.940;6.888;2022-08-21T18:05:29;2.90;;;1.60;;
3278;SDS011;1651;50.940;6.888;2022-08-21T18:07:56;2.80;;;1.50;;
3278;SDS011;1651;50.940;6.888;2022-08-21T18:10:22;7.50;;;1.80;;
3278;SDS011;1651;50.940;6.888;2022-08-21T18:12:48;5.30;;;2.00;;
3278;SDS011;1651;50.940;6.888;2022-08-21T18:15:17;3.60;;;1.70;;
3278;SDS011;1651;50.940;6.888;2022-08-21T18:17:47;3.33;;;2.00;;
3278;SDS011;1651;50.940;6.888;2022-08-21T18:20:16;4.33;;;1.70;;
3278;SDS011;1651;50.940;6.888;2022-08-21T18:22:43;3.90;;;1.53;;
3278;SDS011;1651;50.940;6.888;2022-08-21T18:25:09;2.27;;;1.50;;
3278;SDS011;1651;50.940;6.888;2022-08-21T18:27:35;3.47;;;1.83;;
3278;SDS011;1651;50.940;6.888;2022-08-21T18:30:03;3.63;;;1.83;;
3278;SDS011;1651;50.940;6.888;2022-08-21T18:32:29;4.90;;;1.60;;
3278;SDS011;1651;50.940;6.888;2022-08-21T18:34:57;3.73;;;1.93;;
3278;SDS011;1651;50.940;6.888;2022-08-21T18:37:24;3.47;;;1.70;;
3278;SDS011;1651;50.940;6.888;2022-08-21T18:39:50;1.97;;;1.53;;
3278;SDS011;1651;50.940;6.888;2022-08-21T18:42:16;5.30;;;1.83;;
3278;SDS011;1651;50.940;6.888;2022-08-21T18:44:45;2.60;;;1.57;;
3278;SDS011;1651;50.940;6.888;2022-08-21T18:47:14;3.27;;;2.07;;
3278;SDS011;1651;50.940;6.888;2022-08-21T18:49:42;7.00;;;2.10;;
3278;SDS011;1651;50.940;6.888;2022-08-21T18:52:08;2.50;;;1.53;;
3278;SDS011;1651;50.940;6.888;2022-08-21T18:54:35;3.20;;;1.90;;
3278;SDS011;1651;50.940;6.888;2022-08-21T18:57:01;3.57;;;2.00;;
3278;SDS011;1651;50.940;6.888;2022-08-21T18:59:27;4.73;;;2.00;;
3278;SDS011;1651;50.940;6.888;2022-08-21T19:01:54;8.57;;;2.27;;
3278;SDS011;1651;50.940;6.888;2022-08-21T19:04:25;4.83;;;1.40;;
3278;SDS011;1651;50.940;6.888;2022-08-21T19:06:55;6.33;;;2.00;;
3278;SDS011;1651;50.940;6.888;2022-08-21T19:09:30;3.63;;;1.60;;
3278;SDS011;1651;50.940;6.888;2022-08-21T19:12:00;2.90;;;1.73;;
3278;SDS011;1651;50.940;6.888;2022-08-21T19:14:28;5.97;;;1.70;;
3278;SDS011;1651;50.940;6.888;2022-08-21T19:16:54;4.90;;;2.00;;
3278;SDS011;1651;50.940;6.888;2022-08-21T19:19:20;1.83;;;1.50;;
3278;SDS011;1651;50.940;6.888;2022-08-21T19:21:47;1.67;;;1.57;;
3278;SDS011;1651;50.940;6.888;2022-08-21T19:24:16;3.40;;;1.77;;
3278;SDS011;1651;50.940;6.888;2022-08-21T19:26:45;3.63;;;1.70;;
3278;SDS011;1651;50.940;6.888;2022-08-21T19:29:15;2.30;;;1.53;;
3278;SDS011;1651;50.940;6.888;2022-08-21T19:31:43;2.53;;;1.70;;
3278;SDS011;1651;50.940;6.888;2022-08-21T19:34:15;1.90;;;1.60;;
3278;SDS011;1651;50.940;6.888;2022-08-21T19:36:43;3.80;;;1.80;;
3278;SDS011;1651;50.940;6.888;2022-08-21T19:39:10;8.17;;;2.30;;
3278;SDS011;1651;50.940;6.888;2022-08-21T19:41:38;5.90;;;2.20;;
3278;SDS011;1651;50.940;6.888;2022-08-21T19:44:06;2.33;;;1.40;;
3278;SDS011;1651;50.940;6.888;2022-08-21T19:46:35;2.57;;;2.10;;
3278;SDS011;1651;50.940;6.888;2022-08-21T19:49:12;2.63;;;1.70;;
3278;SDS011;1651;50.940;6.888;2022-08-21T19:51:38;2.07;;;1.63;;
3278;SDS011;1651;50.940;6.888;2022-08-21T19:54:05;8.00;;;2.37;;
3278;SDS011;1651;50.940;6.888;2022-08-21T19:56:33;4.50;;;2.10;;
3278;SDS011;1651;50.940;6.888;2022-08-21T19:59:00;4.07;;;1.70;;
3278;SDS011;1651;50.940;6.888;2022-08-21T20:01:26;3.70;;;1.60;;
3278;SDS011;1651;50.940;6.888;2022-08-21T20:03:54;3.53;;;1.70;;
3278;SDS011;1651;50.940;6.888;2022-08-21T20:06:20;3.00;;;1.60;;
3278;SDS011;1651;50.940;6.888;2022-08-21T20:08:48;4.13;;;2.00;;
3278;SDS011;1651;50.940;6.888;2022-08-21T20:11:14;4.17;;;3.03;;
3278;SDS011;1651;50.940;6.888;2022-08-21T20:13:44;3.40;;;1.83;;
3278;SDS011;1651;50.940;6.888;2022-08-21T20:16:12;4.43;;;2.00;;
3278;SDS011;1651;50.940;6.888;2022-08-21T20:18:40;4.30;;;1.90;;
3278;SDS011;1651;50.940;6.888;2022-08-21T20:21:09;5.23;;;1.70;;
3278;SDS011;1651;50.940;6.888;2022-08-21T20:23:37;3.63;;;1.57;;
3278;SDS011;1651;50.940;6.888;2022-08-21T20:26:03;4.70;;;1.93;;
3278;SDS011;1651;50.940;6.888;2022-08-21T20:28:32;3.40;;;2.20;;
3278;SDS011;1651;50.940;6.888;2022-08-21T20:31:00;3.70;;;2.63;;
3278;SDS011;1651;50.940;6.888;2022-08-21T20:33:26;5.87;;;2.37;;
3278;SDS011;1651;50.940;6.888;2022-08-21T20:35:52;3.67;;;1.80;;
3278;SDS011;1651;50.940;6.888;2022-08-21T20:38:19;4.70;;;2.30;;
3278;SDS011;1651;50.940;6.888;2022-08-21T20:41:00;2.00;;;1.80;;
3278;SDS011;1651;50.940;6.888;2022-08-21T20:43:28;3.40;;;1.70;;
3278;SDS011;1651;50.940;6.888;2022-08-21T20:45:58;3.90;;;1.47;;
3278;SDS011;1651;50.940;6.888;2022-08-21T21:02:21;3.10;;;1.93;;
3278;SDS011;1651;50.940;6.888;2022-08-21T21:04:52;5.73;;;2.20;;
3278;SDS011;1651;50.940;6.888;2022-08-21T21:07:24;3.83;;;2.20;;
3278;SDS011;1651;50.940;6.888;2022-08-21T21:09:51;4.20;;;2.03;;
3278;SDS011;1651;50.940;6.888;2022-08-21T21:12:27;4.33;;;2.20;;
3278;SDS011;1651;50.940;6.888;2022-08-21T21:14:55;3.50;;;2.63;;
3278;SDS011;1651;50.940;6.888;2022-08-21T21:17:27;2.63;;;1.80;;
3278;SDS011;1651;50.940;6.888;2022-08-21T21:19:56;3.00;;;2.00;;
3278;SDS011;1651;50.940;6.888;2022-08-21T21:22:25;6.60;;;2.10;;
3278;SDS011;1651;50.940;6.888;2022-08-21T21:25:07;2.97;;;2.30;;
3278;SDS011;1651;50.940;6.888;2022-08-21T21:27:36;2.20;;;1.93;;
3278;SDS011;1651;50.940;6.888;2022-08-21T21:32:31;3.27;;;1.83;;
3278;SDS011;1651;50.940;6.888;2022-08-21T21:34:58;3.43;;;2.57;;
3278;SDS011;1651;50.940;6.888;2022-08-21T21:37:27;6.50;;;2.67;;
3278;SDS011;1651;50.940;6.888;2022-08-21T21:40:00;3.03;;;2.07;;
3278;SDS011;1651;50.940;6.888;2022-08-21T21:42:38;5.30;;;2.47;;
3278;SDS011;1651;50.940;6.888;2022-08-21T22:00:34;4.53;;;2.67;;